createdAt,value
2018-07-17T00:00:10.088Z,17.20
2018-07-17T00:02:39.277Z,17.10
2018-07-17T00:05:09.122Z,17.20
2018-07-17T00:07:38.310Z,17.10
2018-07-17T00:10:07.741Z,17.10
2018-07-17T00:12:36.949Z,17.00
2018-07-17T00:15:05.819Z,17.00
2018-07-17T00:17:35.166Z,17.00
2018-07-17T00:20:04.127Z,17.00
2018-07-17T00:22:32.993Z,17.10
2018-07-17T00:25:01.875Z,17.10
2018-07-17T00:27:30.754Z,17.00
2018-07-17T00:29:59.632Z,16.90
2018-07-17T00:32:28.546Z,16.80
2018-07-17T00:34:57.445Z,16.80
2018-07-17T00:37:26.318Z,16.80
2018-07-17T00:39:55.291Z,16.60
2018-07-17T00:42:24.254Z,16.60
2018-07-17T00:44:53.152Z,16.50
2018-07-17T00:47:22.042Z,16.40
2018-07-17T00:49:50.942Z,16.50
2018-07-17T00:52:19.842Z,16.50
2018-07-17T00:54:48.747Z,16.60
2018-07-17T00:57:17.619Z,16.60
2018-07-17T00:59:46.503Z,16.50
2018-07-17T01:02:20.779Z,16.50
2018-07-17T01:04:54.957Z,16.40
2018-07-17T01:07:29.210Z,16.20
2018-07-17T01:10:03.607Z,16.20
2018-07-17T01:12:31.730Z,16.10
2018-07-17T01:15:07.679Z,16.00
2018-07-17T01:17:37.055Z,16.00
2018-07-17T01:20:06.250Z,15.90
2018-07-17T01:22:35.170Z,15.90
2018-07-17T01:25:04.065Z,15.90
2018-07-17T01:27:32.962Z,16.00
2018-07-17T01:30:01.851Z,16.00
2018-07-17T01:32:30.730Z,15.80
2018-07-17T01:34:59.634Z,15.90
2018-07-17T01:37:28.494Z,15.80
2018-07-17T01:39:57.486Z,15.90
2018-07-17T01:42:26.371Z,15.80
2018-07-17T01:44:55.260Z,15.80
2018-07-17T01:47:24.136Z,15.80
2018-07-17T01:49:53.042Z,15.80
2018-07-17T01:52:21.918Z,15.70
2018-07-17T01:54:50.808Z,15.80
2018-07-17T01:57:19.699Z,15.80
2018-07-17T01:59:48.613Z,15.70
2018-07-17T02:02:17.543Z,15.60
2018-07-17T02:04:46.523Z,15.60
2018-07-17T02:07:15.361Z,15.60
2018-07-17T02:09:44.251Z,15.60
2018-07-17T02:12:13.130Z,15.60
2018-07-17T02:14:42.023Z,15.50
2018-07-17T02:17:10.894Z,15.50
2018-07-17T02:19:39.755Z,15.50
2018-07-17T02:22:08.674Z,15.40
2018-07-17T02:24:37.559Z,15.30
2018-07-17T02:27:06.748Z,15.30
2018-07-17T02:29:35.618Z,15.30
2018-07-17T02:32:04.509Z,15.40
2018-07-17T02:34:33.387Z,15.30
2018-07-17T02:37:02.338Z,15.20
2018-07-17T02:39:31.195Z,15.10
2018-07-17T02:44:28.656Z,15.30
2018-07-17T02:46:57.559Z,15.20
2018-07-17T02:49:26.419Z,15.20
2018-07-17T02:51:55.309Z,15.20
2018-07-17T02:54:24.214Z,15.20
2018-07-17T02:56:53.129Z,15.30
2018-07-17T02:59:22.219Z,15.20
2018-07-17T03:01:51.103Z,15.20
2018-07-17T03:04:19.991Z,15.10
2018-07-17T03:06:48.924Z,15.10
2018-07-17T03:09:17.791Z,14.90
2018-07-17T03:11:47.073Z,15.00
2018-07-17T03:14:15.975Z,14.80
2018-07-17T03:16:44.871Z,14.80
2018-07-17T03:19:13.739Z,14.70
2018-07-17T03:21:42.642Z,14.70
2018-07-17T03:24:11.755Z,14.80
2018-07-17T03:26:40.746Z,14.70
2018-07-17T03:29:09.697Z,14.70
2018-07-17T03:31:38.598Z,14.70
2018-07-17T03:34:07.494Z,14.80
2018-07-17T03:36:36.474Z,14.80
2018-07-17T03:39:07.131Z,14.80
2018-07-17T03:41:36.067Z,14.60
2018-07-17T03:44:04.951Z,14.50
2018-07-17T03:46:33.880Z,14.60
2018-07-17T03:49:02.731Z,14.70
2018-07-17T03:51:31.606Z,14.60
2018-07-17T03:54:00.511Z,14.60
2018-07-17T03:56:29.380Z,14.50
2018-07-17T03:58:58.270Z,14.60
2018-07-17T04:01:27.158Z,14.60
2018-07-17T04:03:56.066Z,14.60
2018-07-17T04:06:25.127Z,14.60
2018-07-17T04:08:54.012Z,14.60
2018-07-17T04:11:22.907Z,14.50
2018-07-17T04:13:51.794Z,14.50
2018-07-17T04:16:20.687Z,14.60
2018-07-17T04:18:49.770Z,14.50
2018-07-17T04:21:18.679Z,14.60
2018-07-17T04:23:47.603Z,14.60
2018-07-17T04:26:16.572Z,14.70
2018-07-17T04:28:45.440Z,14.70
2018-07-17T04:31:14.318Z,14.70
2018-07-17T04:33:43.246Z,14.60
2018-07-17T04:36:12.162Z,14.70
2018-07-17T04:38:41.038Z,14.70
2018-07-17T04:41:10.023Z,14.80
2018-07-17T04:43:38.890Z,14.90
2018-07-17T04:46:07.782Z,14.90
2018-07-17T04:48:36.650Z,15.00
2018-07-17T04:51:05.551Z,15.20
2018-07-17T04:53:34.530Z,15.40
2018-07-17T04:56:03.426Z,15.40
2018-07-17T04:58:32.301Z,15.50
2018-07-17T05:01:01.205Z,15.70
2018-07-17T05:03:30.110Z,15.80
2018-07-17T05:05:58.975Z,15.90
2018-07-17T05:08:27.984Z,16.00
2018-07-17T05:10:57.411Z,16.10
2018-07-17T05:13:26.328Z,16.20
2018-07-17T05:15:55.226Z,16.20
2018-07-17T05:18:24.110Z,16.20
2018-07-17T05:20:53.001Z,16.30
2018-07-17T05:23:21.920Z,16.30
2018-07-17T05:25:50.877Z,16.30
2018-07-17T05:28:19.762Z,16.40
2018-07-17T05:30:48.656Z,16.50
2018-07-17T05:33:17.553Z,16.60
2018-07-17T05:35:46.447Z,16.70
2018-07-17T05:38:15.354Z,14.80
2018-07-17T05:40:44.258Z,16.80
2018-07-17T05:43:13.164Z,16.80
2018-07-17T05:45:42.047Z,16.90
2018-07-17T05:48:10.934Z,17.00
2018-07-17T05:50:39.846Z,17.00
2018-07-17T05:53:08.754Z,17.20
2018-07-17T05:55:37.649Z,17.20
2018-07-17T05:58:06.589Z,17.30
2018-07-17T06:00:35.465Z,17.40
2018-07-17T06:03:04.367Z,17.50
2018-07-17T06:05:33.278Z,17.50
2018-07-17T06:08:02.174Z,17.60
2018-07-17T06:10:31.046Z,17.80
2018-07-17T06:12:59.943Z,17.70
2018-07-17T06:15:28.851Z,17.70
2018-07-17T06:17:57.790Z,17.80
2018-07-17T06:20:26.690Z,17.80
2018-07-17T06:22:55.594Z,18.00
2018-07-17T06:25:24.494Z,18.10
2018-07-17T06:27:53.543Z,18.30
2018-07-17T06:30:22.463Z,18.30
2018-07-17T06:32:51.383Z,18.40
2018-07-17T06:35:20.323Z,18.50
2018-07-17T06:37:49.223Z,18.50
2018-07-17T06:40:18.122Z,18.70
2018-07-17T06:42:47.035Z,18.70
2018-07-17T06:45:15.903Z,18.90
2018-07-17T06:47:44.885Z,19.10
2018-07-17T06:50:13.824Z,19.30
2018-07-17T06:52:42.687Z,19.40
2018-07-17T06:55:11.566Z,19.60
2018-07-17T07:02:37.770Z,19.80
2018-07-17T07:05:06.718Z,20.00
2018-07-17T07:07:35.609Z,20.00
2018-07-17T07:10:04.546Z,20.10
2018-07-17T07:12:33.472Z,20.30
2018-07-17T07:15:02.365Z,20.50
2018-07-17T07:17:31.282Z,20.60
2018-07-17T07:20:00.154Z,20.70
2018-07-17T07:22:29.091Z,20.70
2018-07-17T07:24:57.978Z,20.90
2018-07-17T07:27:26.894Z,21.00
2018-07-17T07:29:55.762Z,21.20
2018-07-17T07:32:24.658Z,21.30
2018-07-17T07:34:53.566Z,21.40
2018-07-17T07:37:22.522Z,21.60
2018-07-17T07:39:51.422Z,21.70
2018-07-17T07:42:20.337Z,21.70
2018-07-17T07:44:49.338Z,21.70
2018-07-17T07:47:18.205Z,21.70
2018-07-17T07:49:47.099Z,21.80
2018-07-17T07:52:16.030Z,21.80
2018-07-17T07:54:44.910Z,22.00
2018-07-17T07:57:13.886Z,22.20
2018-07-17T07:59:42.860Z,22.30
2018-07-17T08:02:11.955Z,22.30
2018-07-17T08:04:40.903Z,22.50
2018-07-17T08:07:09.790Z,22.50
2018-07-17T08:09:38.697Z,22.70
2018-07-17T08:12:07.720Z,22.80
2018-07-17T08:14:36.751Z,22.90
2018-07-17T08:17:05.630Z,23.10
2018-07-17T08:19:34.586Z,23.40
2018-07-17T08:22:03.574Z,23.50
2018-07-17T08:24:32.459Z,23.40
2018-07-17T08:27:01.322Z,23.40
2018-07-17T08:29:30.195Z,23.60
2018-07-17T08:31:59.157Z,23.60
2018-07-17T08:34:28.043Z,23.70
2018-07-17T08:36:56.915Z,23.80
2018-07-17T08:39:25.793Z,23.90
2018-07-17T08:41:54.699Z,23.90
2018-07-17T08:44:23.706Z,24.00
2018-07-17T08:46:52.586Z,24.40
2018-07-17T08:49:21.557Z,24.20
2018-07-17T08:51:50.416Z,24.30
2018-07-17T08:54:19.364Z,24.50
2018-07-17T08:56:48.265Z,24.40
2018-07-17T08:59:17.287Z,24.70
2018-07-17T09:01:46.167Z,25.00
2018-07-17T09:04:15.066Z,25.20
2018-07-17T09:06:44.035Z,25.20
2018-07-17T09:09:12.921Z,25.20
2018-07-17T09:11:41.815Z,25.40
2018-07-17T09:14:10.730Z,25.60
2018-07-17T09:16:39.614Z,25.80
2018-07-17T09:21:37.059Z,26.00
2018-07-17T09:24:05.930Z,25.90
2018-07-17T09:26:34.826Z,25.90
2018-07-17T09:29:03.773Z,25.60
2018-07-17T09:31:32.650Z,25.80
2018-07-17T09:34:01.682Z,26.00
2018-07-17T09:36:30.542Z,26.10
2018-07-17T09:38:59.694Z,26.20
2018-07-17T09:41:28.512Z,26.20
2018-07-17T09:43:57.397Z,26.20
2018-07-17T09:46:26.303Z,26.30
2018-07-17T09:48:55.242Z,26.40
2018-07-17T09:51:24.167Z,26.70
2018-07-17T09:53:53.174Z,27.10
2018-07-17T09:56:22.170Z,27.50
2018-07-17T09:58:51.966Z,27.60
2018-07-17T10:01:26.186Z,27.90
2018-07-17T10:03:55.098Z,28.10
2018-07-17T10:06:24.017Z,28.40
2018-07-17T10:08:52.982Z,28.60
2018-07-17T10:11:22.900Z,28.70
2018-07-17T10:13:52.698Z,28.90
2018-07-17T10:16:21.639Z,29.00
2018-07-17T10:18:50.590Z,29.10
2018-07-17T10:21:19.499Z,29.00
2018-07-17T10:23:48.374Z,29.30
2018-07-17T10:26:17.308Z,29.40
2018-07-17T10:28:46.185Z,29.30
2018-07-17T10:31:15.063Z,28.90
2018-07-17T10:33:43.946Z,29.00
2018-07-17T10:36:12.830Z,29.20
2018-07-17T10:38:41.765Z,29.00
2018-07-17T10:41:10.822Z,29.10
2018-07-17T10:43:39.695Z,29.40
2018-07-17T10:46:08.703Z,29.20
2018-07-17T10:48:37.642Z,29.20
2018-07-17T10:51:06.570Z,28.90
2018-07-17T10:53:35.446Z,28.70
2018-07-17T10:56:04.382Z,28.50
2018-07-17T10:58:33.297Z,28.40
2018-07-17T11:01:02.251Z,27.90
2018-07-17T11:03:31.046Z,27.80
2018-07-17T11:05:59.942Z,27.60
2018-07-17T11:08:28.854Z,27.50
2018-07-17T11:10:57.707Z,27.50
2018-07-17T11:13:26.579Z,27.50
2018-07-17T11:15:55.467Z,27.40
2018-07-17T11:18:24.410Z,27.40
2018-07-17T11:20:53.466Z,27.60
2018-07-17T11:23:22.478Z,27.80
2018-07-17T11:25:51.401Z,28.20
2018-07-17T11:28:20.315Z,28.90
2018-07-17T11:30:49.231Z,29.40
2018-07-17T11:33:18.418Z,29.90
2018-07-17T11:35:47.540Z,30.10
2018-07-17T11:38:16.438Z,30.50
2018-07-17T11:40:45.331Z,30.20
2018-07-17T11:43:14.273Z,30.50
2018-07-17T11:45:43.182Z,30.90
2018-07-17T11:50:40.608Z,30.50
2018-07-17T11:53:09.475Z,30.60
2018-07-17T11:55:38.466Z,30.80
2018-07-17T11:58:07.353Z,30.80
2018-07-17T12:00:36.290Z,30.90
2018-07-17T12:03:05.265Z,30.80
2018-07-17T12:05:34.222Z,30.80
2018-07-17T12:08:03.082Z,30.50
2018-07-17T12:10:31.965Z,30.60
2018-07-17T12:13:01.223Z,30.90
2018-07-17T12:15:30.154Z,30.90
2018-07-17T12:17:59.025Z,31.30
2018-07-17T12:20:28.062Z,31.20
2018-07-17T12:22:56.846Z,30.70
2018-07-17T12:25:25.759Z,31.10
2018-07-17T12:27:54.702Z,31.30
2018-07-17T12:30:23.579Z,31.70
2018-07-17T12:32:52.518Z,31.90
2018-07-17T12:35:21.492Z,31.90
2018-07-17T12:37:50.409Z,32.00
2018-07-17T12:40:19.365Z,32.10
2018-07-17T12:42:48.351Z,31.80
2018-07-17T12:45:17.303Z,31.50
2018-07-17T12:47:46.275Z,30.90
2018-07-17T12:52:43.678Z,31.10
2018-07-17T12:55:12.614Z,31.70
2018-07-17T12:57:41.554Z,32.10
2018-07-17T13:00:10.516Z,32.50
2018-07-17T13:02:39.437Z,32.50
2018-07-17T13:05:08.326Z,32.70
2018-07-17T13:07:37.249Z,33.10
2018-07-17T13:10:06.470Z,33.40
2018-07-17T13:12:35.368Z,33.20
2018-07-17T13:15:06.579Z,32.50
2018-07-17T13:17:35.656Z,32.80
2018-07-17T13:20:04.923Z,32.90
2018-07-17T13:22:33.821Z,32.90
2018-07-17T13:25:02.830Z,33.10
2018-07-17T13:27:31.798Z,33.20
2018-07-17T13:30:00.817Z,32.90
2018-07-17T13:32:29.686Z,33.10
2018-07-17T13:34:58.568Z,33.60
2018-07-17T13:37:27.543Z,33.90
2018-07-17T13:39:56.454Z,34.30
2018-07-17T13:42:30.416Z,34.40
2018-07-17T13:45:02.482Z,34.50
2018-07-17T13:47:31.416Z,34.70
2018-07-17T13:50:00.434Z,34.90
2018-07-17T13:52:31.984Z,34.90
2018-07-17T13:55:00.912Z,34.80
2018-07-17T13:57:29.866Z,34.70
2018-07-17T13:59:59.089Z,34.90
2018-07-17T14:02:28.190Z,35.00
2018-07-17T14:04:57.114Z,35.40
2018-07-17T14:07:26.189Z,35.20
2018-07-17T14:09:55.082Z,35.30
2018-07-17T14:12:29.311Z,35.70
2018-07-17T14:14:58.297Z,34.40
2018-07-17T14:17:27.428Z,34.40
2018-07-17T14:19:56.258Z,34.80
2018-07-17T14:22:25.404Z,34.50
2018-07-17T14:24:54.334Z,35.20
2018-07-17T14:27:24.663Z,35.50
2018-07-17T14:29:54.202Z,35.60
2018-07-17T14:32:23.195Z,35.50
2018-07-17T14:34:52.259Z,35.20
2018-07-17T14:37:21.194Z,33.80
2018-07-17T14:42:18.775Z,32.10
2018-07-17T14:44:47.757Z,31.30
2018-07-17T14:47:16.911Z,31.00
2018-07-17T14:52:15.253Z,31.30
2018-07-17T14:54:44.286Z,32.30
2018-07-17T14:57:13.169Z,33.30
2018-07-17T14:59:45.030Z,33.90
2018-07-17T15:02:14.060Z,34.60
2018-07-17T15:04:43.046Z,34.90
2018-07-17T15:07:11.985Z,34.70
2018-07-17T15:09:40.955Z,34.40
2018-07-17T15:12:09.916Z,34.00
2018-07-17T15:14:38.802Z,34.00
2018-07-17T15:17:07.855Z,33.20
2018-07-17T15:19:36.835Z,31.90
2018-07-17T15:22:06.071Z,31.70
2018-07-17T15:24:35.014Z,31.70
2018-07-17T15:27:04.082Z,31.90
2018-07-17T15:29:33.046Z,32.30
2018-07-17T15:32:02.282Z,32.50
2018-07-17T15:34:31.886Z,32.20
2018-07-17T15:37:00.782Z,32.00
2018-07-17T15:39:29.678Z,32.80
2018-07-17T15:41:58.611Z,33.10
2018-07-17T15:44:27.548Z,33.10
2018-07-17T15:46:57.822Z,33.20
2018-07-17T15:49:26.838Z,33.70
2018-07-17T15:51:55.724Z,34.70
2018-07-17T15:54:24.734Z,35.40
2018-07-17T15:56:53.618Z,35.40
2018-07-17T15:59:22.582Z,35.10
2018-07-17T16:01:51.599Z,35.00
2018-07-17T16:04:20.518Z,35.30
2018-07-17T16:06:49.486Z,35.50
2018-07-17T16:09:18.455Z,35.60
2018-07-17T16:11:47.314Z,35.70
2018-07-17T16:14:16.639Z,35.70
2018-07-17T16:16:45.175Z,35.30
2018-07-17T16:19:14.070Z,35.10
2018-07-17T16:21:43.055Z,34.60
2018-07-17T16:26:40.718Z,35.10
2018-07-17T16:29:09.614Z,35.90
2018-07-17T16:31:38.514Z,36.30
2018-07-17T16:34:10.732Z,36.30
2018-07-17T16:36:39.842Z,35.90
2018-07-17T16:39:08.733Z,36.00
2018-07-17T16:41:37.598Z,35.80
2018-07-17T16:44:06.566Z,35.20
2018-07-17T16:46:35.449Z,35.40
2018-07-17T16:49:04.431Z,35.70
2018-07-17T16:51:33.298Z,35.10
2018-07-17T16:54:02.269Z,34.90
2018-07-17T16:56:31.368Z,34.40
2018-07-17T16:59:00.415Z,33.60
2018-07-17T17:01:29.345Z,32.20
2018-07-17T17:03:58.270Z,31.10
2018-07-17T17:06:27.153Z,30.30
2018-07-17T17:08:56.109Z,29.90
2018-07-17T17:11:24.958Z,29.70
2018-07-17T17:13:54.058Z,30.20
2018-07-17T17:16:22.963Z,30.90
2018-07-17T17:18:51.912Z,31.70
2018-07-17T17:21:20.839Z,32.00
2018-07-17T17:26:19.254Z,32.50
2018-07-17T17:28:48.219Z,32.50
2018-07-17T17:31:17.102Z,31.20
2018-07-17T17:33:46.022Z,30.70
2018-07-17T17:36:15.193Z,30.50
2018-07-17T17:38:44.050Z,30.10
2018-07-17T17:41:13.030Z,29.50
2018-07-17T17:43:41.922Z,29.30
2018-07-17T17:46:10.805Z,29.10
2018-07-17T17:48:39.978Z,28.90
2018-07-17T17:51:09.104Z,28.60
2018-07-17T17:53:37.981Z,28.30
2018-07-17T17:56:06.887Z,28.10
2018-07-17T17:58:35.822Z,27.80
2018-07-17T18:03:33.862Z,27.70
2018-07-17T18:06:03.110Z,27.70
2018-07-17T18:08:32.106Z,27.60
2018-07-17T18:11:00.983Z,27.50
2018-07-17T18:13:29.891Z,27.50
2018-07-17T18:15:58.791Z,27.40
2018-07-17T18:18:27.670Z,27.40
2018-07-17T18:20:56.550Z,27.30
2018-07-17T18:23:25.455Z,27.20
2018-07-17T18:25:54.389Z,27.20
2018-07-17T18:28:23.333Z,27.10
2018-07-17T18:30:52.234Z,27.10
2018-07-17T18:33:21.109Z,27.10
2018-07-17T18:35:50.010Z,27.00
2018-07-17T18:38:19.095Z,26.90
2018-07-17T18:40:47.958Z,26.90
2018-07-17T18:43:16.849Z,26.80
2018-07-17T18:45:45.858Z,26.80
2018-07-17T18:48:15.772Z,26.70
2018-07-17T18:50:44.584Z,26.60
2018-07-17T18:53:13.695Z,26.50
2018-07-17T18:55:42.608Z,26.40
2018-07-17T18:58:11.506Z,26.30
2018-07-17T19:00:40.476Z,26.20
2018-07-17T19:03:09.445Z,26.20
2018-07-17T19:05:38.450Z,26.20
2018-07-17T19:08:07.418Z,26.10
2018-07-17T19:10:36.390Z,25.90
2018-07-17T19:13:05.388Z,25.90
2018-07-17T19:15:34.386Z,25.80
2018-07-17T19:18:03.282Z,25.80
2018-07-17T19:20:32.230Z,25.70
2018-07-17T19:23:01.107Z,25.60
2018-07-17T19:25:30.037Z,25.60
2018-07-17T19:27:58.958Z,25.50
2018-07-17T19:30:27.843Z,25.50
2018-07-17T19:32:56.738Z,25.30
2018-07-17T19:35:25.869Z,25.30
2018-07-17T19:37:54.830Z,25.20
2018-07-17T19:40:23.918Z,25.00
2018-07-17T19:42:52.947Z,25.10
2018-07-17T19:45:21.904Z,25.00
2018-07-17T19:47:50.918Z,25.00
2018-07-17T19:50:20.023Z,24.80
2018-07-17T19:52:49.104Z,24.80
2018-07-17T19:55:18.007Z,24.60
2018-07-17T19:57:47.479Z,24.60
2018-07-17T20:00:16.463Z,24.60
2018-07-17T20:02:45.361Z,24.50
2018-07-17T20:07:42.839Z,24.50
2018-07-17T20:10:11.771Z,24.40
2018-07-17T20:12:40.709Z,24.30
2018-07-17T20:15:10.641Z,24.30
2018-07-17T20:17:40.468Z,24.30
2018-07-17T20:20:10.302Z,24.20
2018-07-17T20:22:39.664Z,24.10
2018-07-17T20:25:11.839Z,24.10
2018-07-17T20:27:41.011Z,24.10
2018-07-17T20:30:10.046Z,24.00
2018-07-17T20:32:40.139Z,24.00
2018-07-17T20:35:09.898Z,23.90
2018-07-17T20:37:38.964Z,23.90
2018-07-17T20:40:08.076Z,23.90
2018-07-17T20:42:37.242Z,23.90
2018-07-17T20:45:06.543Z,23.90
2018-07-17T20:47:35.481Z,23.90
2018-07-17T20:50:05.105Z,23.90
2018-07-17T20:55:04.795Z,23.90
2018-07-17T20:57:33.705Z,23.80
2018-07-17T21:00:05.919Z,23.70
2018-07-17T21:02:35.356Z,23.60
2018-07-17T21:05:05.731Z,23.60
2018-07-17T21:07:40.197Z,23.60
2018-07-17T21:10:09.279Z,23.50
2018-07-17T21:12:38.166Z,23.40
2018-07-17T21:15:07.144Z,23.30
2018-07-17T21:17:36.023Z,23.20
2018-07-17T21:20:05.230Z,23.20
2018-07-17T21:22:34.168Z,23.10
2018-07-17T21:25:03.050Z,23.10
2018-07-17T21:27:31.943Z,23.10
2018-07-17T21:30:00.932Z,23.10
2018-07-17T21:32:29.887Z,23.10
2018-07-17T21:34:58.770Z,23.00
2018-07-17T21:37:27.681Z,22.90
2018-07-17T21:39:56.609Z,22.80
2018-07-17T21:42:25.502Z,22.70
2018-07-17T21:44:54.610Z,22.70
2018-07-17T21:47:23.494Z,22.70
2018-07-17T21:49:52.358Z,22.40
2018-07-17T21:52:21.254Z,22.30
2018-07-17T21:54:50.162Z,22.00
2018-07-17T21:57:19.062Z,22.00
2018-07-17T21:59:47.976Z,22.00
2018-07-17T22:02:16.840Z,21.80
2018-07-17T22:04:45.757Z,21.90
2018-07-17T22:07:14.623Z,21.90
2018-07-17T22:09:43.567Z,21.80
2018-07-17T22:12:12.469Z,21.70
2018-07-17T22:14:41.382Z,21.70
2018-07-17T22:17:10.303Z,21.70
2018-07-17T22:19:39.230Z,21.70
2018-07-17T22:22:08.131Z,21.70
2018-07-17T22:24:37.010Z,21.70
2018-07-17T22:27:05.932Z,21.70
2018-07-17T22:29:34.853Z,21.60
2018-07-17T22:32:04.618Z,21.50
2018-07-17T22:34:33.495Z,21.40
2018-07-17T22:37:02.410Z,21.40
2018-07-17T22:39:31.283Z,21.50
2018-07-17T22:42:00.151Z,21.60
2018-07-17T22:44:29.030Z,21.80
2018-07-17T22:46:57.894Z,21.80
2018-07-17T22:49:26.779Z,21.70
2018-07-17T22:51:55.660Z,21.60
2018-07-17T22:54:24.577Z,21.60
2018-07-17T22:56:53.478Z,21.70
2018-07-17T22:59:22.382Z,21.70
2018-07-17T23:01:51.266Z,21.60
2018-07-17T23:04:20.163Z,21.80
2018-07-17T23:06:49.038Z,21.90
2018-07-17T23:09:17.944Z,21.90
2018-07-17T23:11:46.834Z,22.00
2018-07-17T23:14:15.722Z,21.90
2018-07-17T23:16:44.602Z,22.00
2018-07-17T23:19:13.550Z,21.90
2018-07-17T23:21:42.441Z,21.90
2018-07-17T23:24:11.346Z,21.90
2018-07-17T23:26:40.278Z,21.90
2018-07-17T23:29:09.329Z,21.80
2018-07-17T23:31:38.218Z,21.90
2018-07-17T23:34:07.114Z,21.90
2018-07-17T23:36:35.990Z,21.90
2018-07-17T23:39:07.111Z,22.00
2018-07-17T23:41:35.982Z,21.90
2018-07-17T23:44:04.870Z,21.90
2018-07-17T23:46:33.803Z,21.90
2018-07-17T23:49:02.671Z,21.90
2018-07-17T23:51:31.554Z,21.80
2018-07-17T23:54:00.466Z,21.90
2018-07-17T23:56:29.354Z,21.90
2018-07-17T23:58:58.249Z,21.90
